createdAt,value
2022-10-14T00:01:26.124Z,1.25
2022-10-14T00:03:55.976Z,1.02
2022-10-14T00:06:27.037Z,0.98
2022-10-14T00:08:56.547Z,1.27
2022-10-14T00:11:28.415Z,10.30
2022-10-14T00:14:01.026Z,4.72
2022-10-14T00:16:36.013Z,13.57
2022-10-14T00:19:05.634Z,9.23
2022-10-14T00:21:35.451Z,7.95
2022-10-14T00:24:04.084Z,1.08
2022-10-14T00:26:39.018Z,5.20
2022-10-14T00:29:12.657Z,3.50
2022-10-14T00:31:41.501Z,3.38
2022-10-14T00:34:10.058Z,2.65
2022-10-14T00:36:38.570Z,2.92
2022-10-14T00:39:07.137Z,2.50
2022-10-14T00:41:36.990Z,2.03
2022-10-14T00:44:30.142Z,1.77
2022-10-14T00:46:58.681Z,1.42
2022-10-14T00:49:35.058Z,1.73
2022-10-14T00:52:13.350Z,2.13
2022-10-14T00:54:51.029Z,1.23
2022-10-14T00:57:20.603Z,1.55
2022-10-14T00:59:49.607Z,0.70
2022-10-14T01:02:18.223Z,0.90
2022-10-14T01:04:47.846Z,1.17
2022-10-14T01:07:53.287Z,1.10
2022-10-14T01:10:45.694Z,1.60
2022-10-14T01:13:19.151Z,1.17
2022-10-14T01:15:56.165Z,1.02
2022-10-14T01:18:36.588Z,1.20
2022-10-14T01:21:34.439Z,1.27
2022-10-14T01:24:27.841Z,1.73
2022-10-14T01:27:27.568Z,1.40
2022-10-14T01:30:08.052Z,1.23
2022-10-14T01:33:21.220Z,1.70
2022-10-14T01:36:12.284Z,1.80
2022-10-14T01:38:48.913Z,1.70
2022-10-14T01:41:36.449Z,1.33
2022-10-14T01:44:09.625Z,1.63
2022-10-14T01:46:40.326Z,1.80
2022-10-14T01:49:15.218Z,1.65
2022-10-14T01:51:50.465Z,1.80
2022-10-14T01:54:27.297Z,1.52
2022-10-14T01:57:00.134Z,1.67
2022-10-14T01:59:30.248Z,2.33
2022-10-14T02:01:58.833Z,1.90
2022-10-14T02:04:27.695Z,2.00
2022-10-14T02:07:07.349Z,1.75
2022-10-14T02:10:15.439Z,1.67
2022-10-14T02:13:02.578Z,1.90
2022-10-14T02:15:52.099Z,1.63
2022-10-14T02:18:40.118Z,1.40
2022-10-14T02:21:30.345Z,1.67
2022-10-14T02:24:06.827Z,1.50
2022-10-14T02:26:36.879Z,1.30
2022-10-14T02:29:07.366Z,1.75
2022-10-14T02:31:39.757Z,1.73
2022-10-14T02:34:13.516Z,1.50
2022-10-14T02:36:44.129Z,1.55
2022-10-14T02:39:17.091Z,1.70
2022-10-14T02:41:45.478Z,1.10
2022-10-14T02:44:13.919Z,1.42
2022-10-14T02:46:42.664Z,1.20
2022-10-14T02:49:11.237Z,1.33
2022-10-14T02:51:39.622Z,1.40
2022-10-14T02:54:07.935Z,1.30
2022-10-14T02:56:36.539Z,1.20
2022-10-14T02:59:05.391Z,1.23
2022-10-14T03:01:37.601Z,1.10
2022-10-14T03:04:06.535Z,1.20
2022-10-14T03:06:34.940Z,1.00
2022-10-14T03:09:03.724Z,0.95
2022-10-14T03:11:32.267Z,1.10
2022-10-14T03:14:00.722Z,0.82
2022-10-14T03:16:29.156Z,1.80
2022-10-14T03:18:57.865Z,0.90
2022-10-14T03:21:26.538Z,0.85
2022-10-14T03:23:55.204Z,1.77
2022-10-14T03:26:23.761Z,1.02
2022-10-14T03:28:52.400Z,0.90
2022-10-14T03:31:21.064Z,0.82
2022-10-14T03:33:49.606Z,0.80
2022-10-14T03:36:18.077Z,1.13
2022-10-14T03:38:46.535Z,0.80
2022-10-14T03:41:15.065Z,0.82
2022-10-14T03:43:43.734Z,0.80
2022-10-14T03:46:12.214Z,1.20
2022-10-14T03:48:40.737Z,0.70
2022-10-14T03:51:08.766Z,1.00
2022-10-14T03:53:37.633Z,0.68
2022-10-14T03:56:05.891Z,0.80
2022-10-14T03:58:34.568Z,0.80
2022-10-14T04:01:03.086Z,0.80
2022-10-14T04:03:31.696Z,0.80
2022-10-14T04:06:00.201Z,0.73
2022-10-14T04:08:28.639Z,0.82
2022-10-14T04:10:58.124Z,0.80
2022-10-14T04:13:26.687Z,0.73
2022-10-14T04:15:55.101Z,0.82
2022-10-14T04:18:23.616Z,2.13
2022-10-14T04:20:52.387Z,1.00
2022-10-14T04:23:21.026Z,0.98
2022-10-14T04:25:49.564Z,0.90
2022-10-14T04:28:18.066Z,0.73
2022-10-14T04:30:46.660Z,0.80
2022-10-14T04:33:15.392Z,0.70
2022-10-14T04:35:43.530Z,1.02
2022-10-14T04:38:11.442Z,0.80
2022-10-14T04:40:39.975Z,0.95
2022-10-14T04:43:08.426Z,0.80
2022-10-14T04:45:36.536Z,0.80
2022-10-14T04:48:05.384Z,0.90
2022-10-14T04:50:33.967Z,0.80
2022-10-14T04:53:02.655Z,0.75
2022-10-14T04:55:31.288Z,0.82
2022-10-14T04:57:59.808Z,1.35
2022-10-14T05:00:28.365Z,0.68
2022-10-14T05:02:56.929Z,0.70
2022-10-14T05:05:25.411Z,0.90
2022-10-14T05:07:53.903Z,1.08
2022-10-14T05:10:22.276Z,0.70
2022-10-14T05:12:50.915Z,0.77
2022-10-14T05:15:19.495Z,0.95
2022-10-14T05:17:48.036Z,0.90
2022-10-14T05:20:16.965Z,1.10
2022-10-14T05:22:46.723Z,0.80
2022-10-14T05:25:15.518Z,1.00
2022-10-14T05:27:44.293Z,0.82
2022-10-14T05:30:13.341Z,0.90
2022-10-14T05:32:41.922Z,0.80
2022-10-14T05:35:10.634Z,1.00
2022-10-14T05:37:39.239Z,0.70
2022-10-14T05:40:08.594Z,0.80
2022-10-14T05:42:37.098Z,0.77
2022-10-14T05:45:06.695Z,0.90
2022-10-14T05:47:35.419Z,1.30
2022-10-14T05:50:04.806Z,1.10
2022-10-14T05:52:34.409Z,0.90
2022-10-14T05:55:03.103Z,0.80
2022-10-14T05:57:31.233Z,1.20
2022-10-14T05:59:59.692Z,1.05
2022-10-14T06:02:28.253Z,1.00
2022-10-14T06:04:56.686Z,1.10
2022-10-14T06:07:25.206Z,0.75
2022-10-14T06:09:53.730Z,1.10
2022-10-14T06:12:22.430Z,1.40
2022-10-14T06:14:51.005Z,1.05
2022-10-14T06:17:19.519Z,0.90
2022-10-14T06:19:48.000Z,0.82
2022-10-14T06:22:16.572Z,1.00
2022-10-14T06:24:45.092Z,1.00
2022-10-14T06:27:13.556Z,1.00
2022-10-14T06:29:42.047Z,0.93
2022-10-14T06:32:11.750Z,1.30
2022-10-14T06:34:40.580Z,0.90
2022-10-14T06:37:09.120Z,1.15
2022-10-14T06:39:37.702Z,1.08
2022-10-14T06:42:10.714Z,1.00
2022-10-14T06:44:41.592Z,1.05
2022-10-14T06:47:10.115Z,0.90
2022-10-14T06:49:38.646Z,1.00
2022-10-14T06:52:07.187Z,0.80
2022-10-14T06:54:38.991Z,1.00
2022-10-14T06:57:07.933Z,0.90
2022-10-14T06:59:36.415Z,1.17
2022-10-14T07:02:04.889Z,0.93
2022-10-14T07:04:33.470Z,1.45
2022-10-14T07:07:01.988Z,1.15
2022-10-14T07:09:30.658Z,0.98
2022-10-14T07:11:59.179Z,0.88
2022-10-14T07:14:27.682Z,1.10
2022-10-14T07:16:56.165Z,1.20
2022-10-14T07:19:24.740Z,1.13
2022-10-14T07:21:53.449Z,0.95
2022-10-14T07:24:22.209Z,0.98
2022-10-14T07:26:50.794Z,1.10
2022-10-14T07:29:19.469Z,0.90
2022-10-14T07:31:47.901Z,0.90
2022-10-14T07:34:16.459Z,1.15
2022-10-14T07:36:44.939Z,0.95
2022-10-14T07:39:13.822Z,1.10
2022-10-14T07:41:42.140Z,1.10
2022-10-14T07:44:11.366Z,1.00
2022-10-14T07:46:42.085Z,0.90
2022-10-14T07:49:16.034Z,1.05
2022-10-14T07:51:45.618Z,0.95
2022-10-14T07:54:23.682Z,1.25
2022-10-14T07:56:52.258Z,0.80
2022-10-14T07:59:22.458Z,1.25
2022-10-14T08:01:52.534Z,0.93
2022-10-14T08:04:21.634Z,1.10
2022-10-14T08:06:50.279Z,1.20
2022-10-14T08:09:19.679Z,1.25
2022-10-14T08:11:48.586Z,1.20
2022-10-14T08:14:17.525Z,1.15
2022-10-14T08:16:45.910Z,1.60
2022-10-14T08:19:15.122Z,1.60
2022-10-14T08:21:45.205Z,1.23
2022-10-14T08:24:13.948Z,1.58
2022-10-14T08:26:51.688Z,1.90
2022-10-14T08:29:20.492Z,2.28
2022-10-14T08:31:48.848Z,1.10
2022-10-14T08:34:17.621Z,1.33
2022-10-14T08:36:46.132Z,1.35
2022-10-14T08:39:14.596Z,1.20
2022-10-14T08:42:03.817Z,1.40
2022-10-14T08:45:02.892Z,1.20
2022-10-14T08:47:43.737Z,1.33
2022-10-14T08:50:35.718Z,1.75
2022-10-14T08:53:08.050Z,1.30
2022-10-14T08:55:52.703Z,1.30
2022-10-14T08:58:29.899Z,1.10
2022-10-14T09:01:00.453Z,1.38
2022-10-14T09:03:35.452Z,1.45
2022-10-14T09:06:24.076Z,1.13
2022-10-14T09:08:57.714Z,1.48
2022-10-14T09:11:27.053Z,1.65
2022-10-14T09:14:01.070Z,1.83
2022-10-14T09:16:34.661Z,1.33
2022-10-14T09:19:12.149Z,1.20
2022-10-14T09:21:52.729Z,1.20
2022-10-14T09:24:32.441Z,1.20
2022-10-14T09:27:06.858Z,1.00
2022-10-14T09:29:43.683Z,1.20
2022-10-14T09:32:29.167Z,1.30
2022-10-14T09:34:58.932Z,1.13
2022-10-14T09:37:35.838Z,1.20
2022-10-14T09:40:14.173Z,1.35
2022-10-14T09:43:11.302Z,1.42
2022-10-14T09:45:54.188Z,1.23
2022-10-14T09:48:48.028Z,1.13
2022-10-14T09:51:32.853Z,1.00
2022-10-14T09:54:04.262Z,1.00
2022-10-14T09:56:41.687Z,1.00
2022-10-14T09:59:21.534Z,1.02
2022-10-14T10:02:03.029Z,0.80
2022-10-14T10:04:48.328Z,0.95
2022-10-14T10:07:36.708Z,1.10
2022-10-14T10:10:25.997Z,1.13
2022-10-14T10:12:54.517Z,0.80
2022-10-14T10:15:23.396Z,1.00
2022-10-14T10:17:52.835Z,0.95
2022-10-14T10:20:33.245Z,1.00
2022-10-14T10:23:30.237Z,1.35
2022-10-14T10:26:19.079Z,1.00
2022-10-14T10:28:51.180Z,1.10
2022-10-14T10:31:29.612Z,1.02
2022-10-14T10:34:04.181Z,1.00
2022-10-14T10:36:42.581Z,1.00
2022-10-14T10:39:48.674Z,0.93
2022-10-14T10:42:20.200Z,0.90
2022-10-14T10:45:06.961Z,0.80
2022-10-14T10:48:04.008Z,1.20
2022-10-14T10:51:04.258Z,1.20
2022-10-14T10:53:39.079Z,1.00
2022-10-14T10:56:50.458Z,0.98
2022-10-14T11:00:04.066Z,0.98
2022-10-14T11:02:51.048Z,0.80
2022-10-14T11:05:38.058Z,0.90
2022-10-14T11:08:49.904Z,0.90
2022-10-14T11:12:00.883Z,1.00
2022-10-14T11:14:49.998Z,1.08
2022-10-14T11:17:29.034Z,0.90
2022-10-14T11:20:25.104Z,0.80
2022-10-14T11:23:37.531Z,1.17
2022-10-14T11:26:32.827Z,1.10
2022-10-14T11:29:20.612Z,1.00
2022-10-14T11:32:07.171Z,0.85
2022-10-14T11:34:49.953Z,1.00
2022-10-14T11:37:39.464Z,0.90
2022-10-14T11:40:33.341Z,0.80
2022-10-14T11:43:29.549Z,1.02
2022-10-14T11:46:17.021Z,1.10
2022-10-14T11:49:11.134Z,0.75
2022-10-14T11:51:46.346Z,1.20
2022-10-14T11:54:20.453Z,0.95
2022-10-14T11:56:57.874Z,0.75
2022-10-14T11:59:47.309Z,1.08
2022-10-14T12:02:27.370Z,1.10
2022-10-14T12:05:05.215Z,1.00
2022-10-14T12:07:45.317Z,0.80
2022-10-14T12:10:29.469Z,1.10
2022-10-14T12:12:58.811Z,1.30
2022-10-14T12:18:02.632Z,1.00
2022-10-14T12:20:31.249Z,0.93
2022-10-14T12:23:01.157Z,1.35
2022-10-14T12:25:49.148Z,0.90
2022-10-14T12:28:21.336Z,1.00
2022-10-14T12:30:50.001Z,1.10
2022-10-14T12:33:22.515Z,0.95
2022-10-14T12:36:02.046Z,0.90
2022-10-14T12:38:32.332Z,1.60
2022-10-14T12:41:35.371Z,1.50
2022-10-14T12:44:15.880Z,1.10
2022-10-14T12:46:49.774Z,1.42
2022-10-14T12:49:34.250Z,1.20
2022-10-14T12:52:07.720Z,1.20
2022-10-14T12:54:39.035Z,1.00
2022-10-14T12:57:24.903Z,1.33
2022-10-14T12:59:55.515Z,1.00
2022-10-14T13:02:39.783Z,0.90
2022-10-14T13:05:29.094Z,1.00
2022-10-14T13:08:22.665Z,2.33
2022-10-14T13:10:57.141Z,1.50
2022-10-14T13:13:49.016Z,1.33
2022-10-14T13:16:23.049Z,1.50
2022-10-14T13:19:04.957Z,1.10
2022-10-14T13:21:37.628Z,0.95
2022-10-14T13:24:31.114Z,1.23
2022-10-14T13:27:14.208Z,1.67
2022-10-14T13:29:57.755Z,1.10
2022-10-14T13:35:19.152Z,1.08
2022-10-14T13:37:57.930Z,1.08
2022-10-14T13:40:38.707Z,1.75
2022-10-14T13:43:40.636Z,1.40
2022-10-14T13:46:40.643Z,1.23
2022-10-14T13:51:59.208Z,1.48
2022-10-14T13:54:30.015Z,1.38
2022-10-14T14:02:40.764Z,1.15
2022-10-14T14:05:17.461Z,1.40
2022-10-14T14:10:42.599Z,1.42
2022-10-14T14:13:20.720Z,1.23
2022-10-14T14:15:54.982Z,1.20
2022-10-14T14:18:56.234Z,1.10
2022-10-14T14:21:33.948Z,1.38
2022-10-14T14:24:03.619Z,1.50
2022-10-14T14:26:38.071Z,1.30
2022-10-14T14:29:08.497Z,1.50
2022-10-14T14:32:05.058Z,1.42
2022-10-14T14:34:28.127Z,1.15
2022-10-14T14:37:16.616Z,1.08
2022-10-14T14:40:01.607Z,0.80
2022-10-14T14:42:34.633Z,0.70
2022-10-14T14:45:08.115Z,0.80
2022-10-14T14:47:36.929Z,1.00
2022-10-14T14:50:28.949Z,0.70
2022-10-14T14:53:24.925Z,0.85
2022-10-14T14:55:56.070Z,0.77
2022-10-14T14:58:48.610Z,0.60
2022-10-14T15:01:29.158Z,0.90
2022-10-14T15:04:13.196Z,0.77
2022-10-14T15:06:51.110Z,0.70
2022-10-14T15:09:39.238Z,0.82
2022-10-14T15:12:17.643Z,0.82
2022-10-14T15:14:49.008Z,0.70
2022-10-14T15:17:39.041Z,1.00
2022-10-14T15:20:29.932Z,0.90
2022-10-14T15:22:58.925Z,0.90
2022-10-14T15:25:32.174Z,0.88
2022-10-14T15:28:04.615Z,0.70
2022-10-14T15:30:36.744Z,0.80
2022-10-14T15:33:13.384Z,0.90
2022-10-14T15:35:42.219Z,0.80
2022-10-14T15:38:16.524Z,1.55
2022-10-14T15:40:47.239Z,0.82
2022-10-14T15:43:24.035Z,0.82
2022-10-14T15:46:13.573Z,0.90
2022-10-14T15:48:49.025Z,0.90
2022-10-14T15:51:19.249Z,1.00
2022-10-14T15:53:48.940Z,1.10
2022-10-14T15:56:18.465Z,1.23
2022-10-14T15:58:46.960Z,1.27
2022-10-14T16:01:20.083Z,1.10
2022-10-14T16:06:18.333Z,1.25
2022-10-14T16:08:50.187Z,0.80
2022-10-14T16:11:28.429Z,0.93
2022-10-14T16:13:57.587Z,1.00
2022-10-14T16:16:32.487Z,0.82
2022-10-14T16:19:03.821Z,0.80
2022-10-14T16:21:33.317Z,0.93
2022-10-14T16:24:03.660Z,0.70
2022-10-14T16:26:32.540Z,0.95
2022-10-14T16:29:01.466Z,0.90
2022-10-14T16:31:29.937Z,1.00
2022-10-14T16:33:58.543Z,1.00
2022-10-14T16:36:27.469Z,1.00
2022-10-14T16:38:57.100Z,0.65
2022-10-14T16:41:25.642Z,0.75
2022-10-14T16:43:54.104Z,0.98
2022-10-14T16:46:42.476Z,1.02
2022-10-14T16:49:10.906Z,0.98
2022-10-14T16:51:40.108Z,0.85
2022-10-14T16:54:08.657Z,0.80
2022-10-14T16:56:54.945Z,0.70
2022-10-14T16:59:24.006Z,0.70
2022-10-14T17:01:53.218Z,0.70
2022-10-14T17:04:22.000Z,0.80
2022-10-14T17:06:50.887Z,1.17
2022-10-14T17:09:20.196Z,0.77
2022-10-14T17:11:50.790Z,0.75
2022-10-14T17:14:24.359Z,1.08
2022-10-14T17:16:55.904Z,1.00
2022-10-14T17:19:25.238Z,1.95
2022-10-14T17:21:54.209Z,1.00
2022-10-14T17:24:24.502Z,0.82
2022-10-14T17:26:52.975Z,0.60
2022-10-14T17:29:21.609Z,0.70
2022-10-14T17:31:50.183Z,0.60
2022-10-14T17:34:18.668Z,0.80
2022-10-14T17:36:47.247Z,0.60
2022-10-14T17:39:21.452Z,0.80
2022-10-14T17:41:56.176Z,1.10
2022-10-14T17:44:24.829Z,0.98
2022-10-14T17:46:53.302Z,1.05
2022-10-14T17:49:21.674Z,1.50
2022-10-14T17:51:50.211Z,1.00
2022-10-14T17:54:18.765Z,1.10
2022-10-14T17:56:47.305Z,1.20
2022-10-14T17:59:15.883Z,1.40
2022-10-14T18:02:01.567Z,1.00
2022-10-14T18:04:31.060Z,1.08
2022-10-14T18:07:00.227Z,0.80
2022-10-14T18:09:28.887Z,1.10
2022-10-14T18:12:13.992Z,1.10
2022-10-14T18:14:42.672Z,0.82
2022-10-14T18:17:13.488Z,1.20
2022-10-14T18:19:44.153Z,1.20
2022-10-14T18:22:15.110Z,1.10
2022-10-14T18:24:45.151Z,1.00
2022-10-14T18:27:13.710Z,1.15
2022-10-14T18:29:42.357Z,1.10
2022-10-14T18:32:10.790Z,1.30
2022-10-14T18:34:39.504Z,1.48
2022-10-14T18:37:08.052Z,1.60
2022-10-14T18:39:36.398Z,1.55
2022-10-14T18:42:05.010Z,1.67
2022-10-14T18:44:33.504Z,1.63
2022-10-14T18:47:02.029Z,1.67
2022-10-14T18:49:38.159Z,1.35
2022-10-14T18:52:09.884Z,1.50
2022-10-14T18:54:38.530Z,1.40
2022-10-14T18:57:06.846Z,1.55
2022-10-14T18:59:37.042Z,1.40
2022-10-14T19:02:05.737Z,1.38
2022-10-14T19:04:34.268Z,1.50
2022-10-14T19:07:02.767Z,1.70
2022-10-14T19:09:34.340Z,1.77
2022-10-14T19:12:22.868Z,1.48
2022-10-14T19:14:51.822Z,2.03
2022-10-14T19:17:20.336Z,1.75
2022-10-14T19:19:49.117Z,2.25
2022-10-14T19:22:17.689Z,1.85
2022-10-14T19:24:45.835Z,1.60
2022-10-14T19:27:14.322Z,2.15
2022-10-14T19:29:42.923Z,1.75
2022-10-14T19:32:11.372Z,1.88
2022-10-14T19:34:42.610Z,1.95
2022-10-14T19:37:15.122Z,2.03
2022-10-14T19:39:43.684Z,1.85
2022-10-14T19:42:12.169Z,2.15
2022-10-14T19:44:40.919Z,2.17
2022-10-14T19:47:09.444Z,1.77
2022-10-14T19:49:38.055Z,2.20
2022-10-14T19:52:06.514Z,1.90
2022-10-14T19:54:34.960Z,2.08
2022-10-14T19:57:03.428Z,1.83
2022-10-14T19:59:31.904Z,2.38
2022-10-14T20:02:00.433Z,1.60
2022-10-14T20:04:28.999Z,2.28
2022-10-14T20:06:58.080Z,2.03
2022-10-14T20:09:26.627Z,1.70
2022-10-14T20:11:55.236Z,1.77
2022-10-14T20:14:23.791Z,2.38
2022-10-14T20:16:55.088Z,2.00
2022-10-14T20:19:24.822Z,1.75
2022-10-14T20:21:53.530Z,2.42
2022-10-14T20:24:22.055Z,1.58
2022-10-14T20:26:50.564Z,1.70
2022-10-14T20:29:19.164Z,2.05
2022-10-14T20:31:48.042Z,2.10
2022-10-14T20:34:16.587Z,1.95
2022-10-14T20:36:45.136Z,1.80
2022-10-14T20:39:13.650Z,2.00
2022-10-14T20:41:42.255Z,2.00
2022-10-14T20:44:10.758Z,1.98
2022-10-14T20:46:39.239Z,2.30
2022-10-14T20:49:07.982Z,2.22
2022-10-14T20:51:36.957Z,2.45
2022-10-14T20:54:08.381Z,2.25
2022-10-14T20:56:38.802Z,3.45
2022-10-14T20:59:09.366Z,2.78
2022-10-14T21:01:38.659Z,2.83
2022-10-14T21:04:09.195Z,2.90
2022-10-14T21:06:37.785Z,3.60
2022-10-14T21:09:06.575Z,2.72
2022-10-14T21:11:35.052Z,3.10
2022-10-14T21:14:04.807Z,3.88
2022-10-14T21:16:36.038Z,3.53
2022-10-14T21:19:09.471Z,3.58
2022-10-14T21:21:43.134Z,3.33
2022-10-14T21:24:15.955Z,3.80
2022-10-14T21:29:12.749Z,4.10
2022-10-14T21:31:41.974Z,4.43
2022-10-14T21:34:12.353Z,4.38
2022-10-14T21:36:41.585Z,4.07
2022-10-14T21:39:12.836Z,4.18
2022-10-14T21:41:42.182Z,4.50
2022-10-14T21:44:12.326Z,4.20
2022-10-14T21:46:40.852Z,5.97
2022-10-14T21:49:12.108Z,4.22
2022-10-14T21:51:40.725Z,4.45
2022-10-14T21:54:11.916Z,4.72
2022-10-14T21:56:43.473Z,4.53
2022-10-14T21:59:13.780Z,4.30
2022-10-14T22:01:43.337Z,4.53
2022-10-14T22:04:12.742Z,4.68
2022-10-14T22:06:41.256Z,5.22
2022-10-14T22:09:10.019Z,4.80
2022-10-14T22:11:41.317Z,5.32
2022-10-14T22:14:13.993Z,4.63
2022-10-14T22:16:42.499Z,4.63
2022-10-14T22:19:12.589Z,4.22
2022-10-14T22:21:43.761Z,4.70
2022-10-14T22:24:12.111Z,4.75
2022-10-14T22:26:41.914Z,4.25
2022-10-14T22:29:18.477Z,4.10
2022-10-14T22:31:48.261Z,4.13
2022-10-14T22:34:18.922Z,4.15
2022-10-14T22:36:47.873Z,3.92
2022-10-14T22:39:18.066Z,3.70
2022-10-14T22:41:46.601Z,3.65
2022-10-14T22:44:15.083Z,3.70
2022-10-14T22:46:43.574Z,3.20
2022-10-14T22:49:12.290Z,3.10
2022-10-14T22:51:41.778Z,3.40
2022-10-14T22:54:11.912Z,3.45
2022-10-14T22:56:40.616Z,2.70
2022-10-14T22:59:13.144Z,3.00
2022-10-14T23:01:43.930Z,2.95
2022-10-14T23:04:13.129Z,2.50
2022-10-14T23:06:44.964Z,2.70
2022-10-14T23:09:13.607Z,3.10
2022-10-14T23:11:41.967Z,3.03
2022-10-14T23:14:10.822Z,3.25
2022-10-14T23:16:40.700Z,2.95
2022-10-14T23:19:09.291Z,2.97
2022-10-14T23:21:39.490Z,2.70
2022-10-14T23:24:13.684Z,3.15
2022-10-14T23:26:42.471Z,3.30
2022-10-14T23:29:13.070Z,3.63
2022-10-14T23:31:43.076Z,3.80
2022-10-14T23:34:16.072Z,3.40
2022-10-14T23:39:17.599Z,3.72
2022-10-14T23:44:14.631Z,3.30
2022-10-14T23:46:42.859Z,3.65
2022-10-14T23:49:25.523Z,3.95
2022-10-14T23:51:55.529Z,3.13
2022-10-14T23:54:24.397Z,3.22
2022-10-14T23:56:53.275Z,3.33
2022-10-14T23:59:21.824Z,3.00
